createdAt,value
2019-05-05T00:03:36.050Z,7.37
2019-05-05T00:06:06.346Z,8.95
2019-05-05T00:08:35.211Z,9.85
2019-05-05T00:11:11.376Z,10.35
2019-05-05T00:13:58.120Z,11.78
2019-05-05T00:16:28.458Z,11.78
2019-05-05T00:18:57.534Z,9.68
2019-05-05T00:21:26.188Z,7.33
2019-05-05T00:23:55.407Z,8.35
2019-05-05T00:26:24.564Z,8.20
2019-05-05T00:28:55.302Z,7.08
2019-05-05T00:31:24.336Z,7.42
2019-05-05T00:33:54.396Z,7.05
2019-05-05T00:36:24.655Z,7.83
2019-05-05T00:38:55.282Z,6.45
2019-05-05T00:41:25.317Z,7.70
2019-05-05T00:43:56.775Z,6.78
2019-05-05T00:46:35.173Z,8.45
2019-05-05T00:49:05.432Z,7.60
2019-05-05T00:51:34.838Z,7.37
2019-05-05T00:54:04.426Z,6.30
2019-05-05T00:56:34.279Z,5.85
2019-05-05T00:59:10.716Z,5.45
2019-05-05T01:01:51.311Z,8.18
2019-05-05T01:04:21.643Z,5.60
2019-05-05T01:06:50.316Z,6.33
2019-05-05T01:09:25.261Z,6.78
2019-05-05T01:11:55.049Z,8.68
2019-05-05T01:14:24.976Z,8.00
2019-05-05T01:16:54.607Z,8.05
2019-05-05T01:19:24.333Z,8.20
2019-05-05T01:21:54.422Z,6.90
2019-05-05T01:24:24.864Z,8.60
2019-05-05T01:26:55.087Z,6.95
2019-05-05T01:29:25.288Z,8.75
2019-05-05T01:31:55.749Z,8.03
2019-05-05T01:34:26.091Z,7.78
2019-05-05T01:36:56.386Z,8.38
2019-05-05T01:39:29.794Z,8.20
2019-05-05T01:42:04.881Z,9.15
2019-05-05T01:44:35.201Z,7.67
2019-05-05T01:47:05.335Z,9.08
2019-05-05T01:49:34.576Z,10.82
2019-05-05T01:52:04.350Z,8.43
2019-05-05T01:54:35.178Z,8.80
2019-05-05T01:57:05.480Z,10.80
2019-05-05T01:59:35.376Z,9.68
2019-05-05T02:02:04.514Z,7.50
2019-05-05T02:04:34.309Z,7.40
2019-05-05T02:07:05.303Z,7.67
2019-05-05T02:09:35.364Z,9.55
2019-05-05T02:12:05.348Z,7.28
2019-05-05T02:14:35.215Z,7.75
2019-05-05T02:17:05.071Z,7.70
2019-05-05T02:19:35.019Z,7.55
2019-05-05T02:22:05.309Z,8.28
2019-05-05T02:24:35.301Z,9.05
2019-05-05T02:27:05.139Z,7.78
2019-05-05T02:29:38.407Z,10.45
2019-05-05T02:32:08.734Z,7.67
2019-05-05T02:34:39.029Z,9.60
2019-05-05T02:37:07.731Z,7.83
2019-05-05T02:39:39.257Z,10.18
2019-05-05T02:42:06.891Z,9.05
2019-05-05T02:44:37.146Z,7.67
2019-05-05T02:47:15.463Z,7.90
2019-05-05T02:49:45.375Z,7.70
2019-05-05T02:52:15.344Z,7.90
2019-05-05T02:54:44.961Z,7.80
2019-05-05T02:57:14.662Z,7.78
2019-05-05T02:59:45.362Z,9.78
2019-05-05T03:02:16.797Z,9.35
2019-05-05T03:04:45.960Z,9.68
2019-05-05T03:07:16.546Z,10.10
2019-05-05T03:09:46.677Z,10.55
2019-05-05T03:12:17.382Z,9.40
2019-05-05T03:14:47.044Z,10.05
2019-05-05T03:17:15.912Z,9.65
2019-05-05T03:19:45.011Z,8.85
2019-05-05T03:22:14.346Z,9.83
2019-05-05T03:24:44.657Z,7.47
2019-05-05T03:27:14.459Z,10.70
2019-05-05T03:29:44.197Z,8.65
2019-05-05T03:32:16.067Z,9.88
2019-05-05T03:34:44.510Z,8.65
2019-05-05T03:37:14.625Z,9.08
2019-05-05T03:39:45.107Z,10.08
2019-05-05T03:42:15.396Z,11.65
2019-05-05T03:44:54.663Z,8.55
2019-05-05T03:47:24.152Z,9.88
2019-05-05T03:49:53.567Z,9.88
2019-05-05T03:52:24.474Z,11.30
2019-05-05T03:54:54.165Z,9.00
2019-05-05T03:57:24.637Z,11.45
2019-05-05T03:59:54.731Z,12.03
2019-05-05T04:02:27.946Z,11.48
2019-05-05T04:05:04.459Z,13.18
2019-05-05T04:07:33.547Z,11.20
2019-05-05T04:10:03.723Z,11.80
2019-05-05T04:12:34.587Z,13.08
2019-05-05T04:15:04.725Z,10.65
2019-05-05T04:17:37.998Z,10.13
2019-05-05T04:20:21.478Z,12.37
2019-05-05T04:22:50.196Z,12.00
2019-05-05T04:25:19.020Z,9.08
2019-05-05T04:27:47.682Z,12.18
2019-05-05T04:30:17.500Z,11.63
2019-05-05T04:32:46.148Z,8.65
2019-05-05T04:35:14.988Z,11.28
2019-05-05T04:37:43.900Z,10.55
2019-05-05T04:40:14.715Z,8.30
2019-05-05T04:42:44.067Z,9.93
2019-05-05T04:45:14.825Z,9.95
2019-05-05T04:47:45.409Z,9.88
2019-05-05T04:50:18.319Z,11.63
2019-05-05T04:52:46.608Z,10.85
2019-05-05T04:55:15.435Z,9.75
2019-05-05T04:57:44.156Z,10.00
2019-05-05T05:00:13.722Z,10.70
2019-05-05T05:02:50.320Z,9.28
2019-05-05T05:05:24.440Z,12.03
2019-05-05T05:07:54.325Z,11.63
2019-05-05T05:10:24.096Z,10.05
2019-05-05T05:12:53.974Z,11.00
2019-05-05T05:15:23.964Z,13.18
2019-05-05T05:17:54.336Z,11.20
2019-05-05T05:20:24.691Z,11.95
2019-05-05T05:22:54.431Z,15.60
2019-05-05T05:25:24.025Z,16.42
2019-05-05T05:27:53.614Z,14.20
2019-05-05T05:30:24.261Z,14.25
2019-05-05T05:32:53.871Z,16.67
2019-05-05T05:35:24.375Z,14.90
2019-05-05T05:37:54.010Z,14.05
2019-05-05T05:40:31.695Z,16.12
2019-05-05T05:43:02.015Z,17.00
2019-05-05T05:45:35.066Z,20.43
2019-05-05T05:48:08.362Z,17.30
2019-05-05T05:50:50.782Z,17.87
2019-05-05T05:53:19.510Z,19.48
2019-05-05T05:55:48.174Z,15.58
2019-05-05T05:58:16.871Z,18.20
2019-05-05T06:00:45.545Z,17.92
2019-05-05T06:03:14.393Z,18.02
2019-05-05T06:05:43.561Z,16.67
2019-05-05T06:08:14.180Z,19.05
2019-05-05T06:10:44.262Z,20.85
2019-05-05T06:13:15.326Z,15.30
2019-05-05T06:15:44.327Z,15.20
2019-05-05T06:18:13.862Z,17.05
2019-05-05T06:20:44.751Z,19.40
2019-05-05T06:23:14.679Z,16.00
2019-05-05T06:25:44.581Z,14.53
2019-05-05T06:28:14.532Z,15.83
2019-05-05T06:30:44.291Z,17.05
2019-05-05T06:33:13.803Z,16.60
2019-05-05T06:35:44.321Z,14.10
2019-05-05T06:38:13.666Z,12.95
2019-05-05T06:40:44.507Z,12.60
2019-05-05T06:43:27.288Z,13.43
2019-05-05T06:45:57.597Z,14.45
2019-05-05T06:48:26.342Z,12.50
2019-05-05T06:50:54.975Z,13.62
2019-05-05T06:53:23.960Z,16.02
2019-05-05T06:55:54.292Z,15.23
2019-05-05T06:58:24.192Z,15.20
2019-05-05T07:00:54.276Z,12.63
2019-05-05T07:03:24.404Z,19.40
2019-05-05T07:05:53.995Z,18.12
2019-05-05T07:08:24.410Z,14.38
2019-05-05T07:10:54.853Z,16.62
2019-05-05T07:13:24.496Z,13.65
2019-05-05T07:15:54.276Z,13.50
2019-05-05T07:18:24.710Z,16.32
2019-05-05T07:20:54.459Z,11.70
2019-05-05T07:23:24.646Z,8.63
2019-05-05T07:25:54.948Z,7.95
2019-05-05T07:28:23.999Z,8.85
2019-05-05T07:30:54.784Z,12.00
2019-05-05T07:33:23.848Z,9.30
2019-05-05T07:36:02.943Z,9.83
2019-05-05T07:40:55.485Z,9.28
2019-05-05T07:43:24.389Z,9.38
2019-05-05T07:45:54.046Z,10.88
2019-05-05T07:48:24.297Z,9.00
2019-05-05T07:51:02.013Z,8.28
2019-05-05T07:53:24.475Z,9.15
2019-05-05T07:55:54.194Z,9.15
2019-05-05T07:58:24.258Z,7.12
2019-05-05T08:00:54.095Z,8.30
2019-05-05T08:03:23.625Z,8.25
2019-05-05T08:05:54.374Z,6.40
2019-05-05T08:08:24.449Z,7.95
2019-05-05T08:10:54.185Z,6.85
2019-05-05T08:13:24.321Z,6.65
2019-05-05T08:15:59.777Z,6.22
2019-05-05T08:18:43.834Z,6.83
2019-05-05T08:21:13.635Z,9.75
2019-05-05T08:23:54.103Z,4.67
2019-05-05T08:26:44.205Z,5.45
2019-05-05T08:29:23.976Z,6.78
2019-05-05T08:31:54.354Z,6.85
2019-05-05T08:34:24.493Z,5.40
2019-05-05T08:36:53.883Z,8.65
2019-05-05T08:39:24.390Z,7.40
2019-05-05T08:41:53.809Z,7.35
2019-05-05T08:44:23.677Z,7.35
2019-05-05T08:46:53.786Z,7.58
2019-05-05T08:49:24.446Z,5.72
2019-05-05T08:51:54.897Z,8.88
2019-05-05T08:54:23.690Z,10.45
2019-05-05T08:56:52.389Z,7.10
2019-05-05T08:59:21.083Z,9.63
2019-05-05T09:01:49.752Z,8.05
2019-05-05T09:04:18.874Z,12.65
2019-05-05T09:06:47.651Z,8.60
2019-05-05T09:09:16.324Z,10.28
2019-05-05T09:11:44.993Z,9.90
2019-05-05T09:14:14.902Z,8.55
2019-05-05T09:16:44.759Z,9.40
2019-05-05T09:19:18.637Z,7.95
2019-05-05T09:21:47.723Z,7.92
2019-05-05T09:24:18.061Z,11.48
2019-05-05T09:26:55.787Z,9.48
2019-05-05T09:29:32.052Z,10.60
2019-05-05T09:32:00.791Z,8.48
2019-05-05T09:34:29.515Z,10.05
2019-05-05T09:36:59.457Z,9.73
2019-05-05T09:39:28.183Z,9.83
2019-05-05T09:41:57.327Z,10.55
2019-05-05T09:44:26.000Z,12.85
2019-05-05T09:46:54.667Z,11.75
2019-05-05T09:49:24.616Z,10.10
2019-05-05T09:51:54.466Z,11.25
2019-05-05T09:54:24.330Z,11.50
2019-05-05T09:56:53.782Z,12.07
2019-05-05T09:59:24.052Z,10.05
2019-05-05T10:01:54.986Z,15.13
2019-05-05T10:04:24.845Z,11.03
2019-05-05T10:06:53.630Z,15.45
2019-05-05T10:09:24.204Z,16.02
2019-05-05T10:11:54.149Z,14.15
2019-05-05T10:14:23.626Z,13.88
2019-05-05T10:16:54.162Z,14.65
2019-05-05T10:19:24.347Z,17.05
2019-05-05T10:21:53.285Z,14.55
2019-05-05T10:24:30.149Z,17.05
2019-05-05T10:26:54.362Z,12.80
2019-05-05T10:29:23.079Z,13.32
2019-05-05T10:31:53.856Z,15.25
2019-05-05T10:34:24.208Z,15.38
2019-05-05T10:36:53.574Z,16.12
2019-05-05T10:39:29.839Z,13.05
2019-05-05T10:41:58.595Z,21.30
2019-05-05T10:44:27.234Z,14.90
2019-05-05T10:46:55.976Z,18.73
2019-05-05T10:49:24.630Z,15.80
2019-05-05T10:51:54.454Z,17.07
2019-05-05T10:54:23.728Z,14.40
2019-05-05T10:56:52.551Z,18.45
2019-05-05T10:59:23.662Z,16.07
2019-05-05T11:01:53.794Z,20.35
2019-05-05T11:04:24.213Z,16.65
2019-05-05T11:06:54.656Z,16.45
2019-05-05T11:09:24.377Z,18.85
2019-05-05T11:11:53.374Z,15.63
2019-05-05T11:14:22.116Z,19.05
2019-05-05T11:16:50.829Z,19.80
2019-05-05T11:19:19.517Z,18.12
2019-05-05T11:21:48.251Z,18.95
2019-05-05T11:24:16.946Z,17.77
2019-05-05T11:26:45.607Z,17.42
2019-05-05T11:29:14.391Z,16.25
2019-05-05T11:31:43.054Z,14.93
2019-05-05T11:34:14.014Z,14.95
2019-05-05T11:36:44.544Z,14.50
2019-05-05T11:39:14.809Z,12.33
2019-05-05T11:41:44.126Z,16.77
2019-05-05T11:44:14.995Z,13.18
2019-05-05T11:46:44.256Z,16.50
2019-05-05T11:49:13.912Z,18.20
2019-05-05T11:51:43.717Z,14.73
2019-05-05T11:54:14.063Z,15.78
2019-05-05T11:56:44.695Z,18.85
2019-05-05T11:59:14.439Z,17.12
2019-05-05T12:01:44.007Z,17.77
2019-05-05T12:04:14.744Z,18.65
2019-05-05T12:06:44.273Z,19.50
2019-05-05T12:09:14.811Z,18.10
2019-05-05T12:11:43.912Z,18.15
2019-05-05T12:14:14.397Z,15.40
2019-05-05T12:16:43.920Z,19.45
2019-05-05T12:19:13.731Z,14.80
2019-05-05T12:21:44.194Z,17.42
2019-05-05T12:24:14.795Z,17.42
2019-05-05T12:27:00.243Z,18.25
2019-05-05T12:29:29.061Z,16.42
2019-05-05T12:31:57.763Z,17.73
2019-05-05T12:34:26.474Z,18.12
2019-05-05T12:36:55.152Z,14.78
2019-05-05T12:39:23.902Z,19.55
2019-05-05T12:41:54.277Z,17.07
2019-05-05T12:44:24.841Z,15.20
2019-05-05T12:46:55.148Z,16.15
2019-05-05T12:49:25.380Z,17.82
2019-05-05T12:51:54.291Z,17.30
2019-05-05T12:54:24.570Z,17.12
2019-05-05T12:56:53.987Z,17.40
2019-05-05T12:59:25.006Z,14.33
2019-05-05T13:01:54.785Z,17.05
2019-05-05T13:04:24.558Z,16.50
2019-05-05T13:06:54.019Z,14.63
2019-05-05T13:09:24.339Z,12.28
2019-05-05T13:11:54.137Z,12.68
2019-05-05T13:14:22.999Z,16.35
2019-05-05T13:16:55.351Z,17.57
2019-05-05T13:19:35.780Z,16.35
2019-05-05T13:22:15.145Z,15.15
2019-05-05T13:24:45.607Z,17.40
2019-05-05T13:27:19.358Z,16.65
2019-05-05T13:29:46.389Z,16.70
2019-05-05T13:32:15.095Z,13.85
2019-05-05T13:34:43.989Z,14.73
2019-05-05T13:37:14.116Z,15.83
2019-05-05T13:39:44.540Z,12.25
2019-05-05T13:42:13.934Z,15.78
2019-05-05T13:44:59.612Z,17.87
2019-05-05T13:47:28.293Z,16.45
2019-05-05T13:49:58.639Z,18.23
2019-05-05T13:52:27.526Z,18.27
2019-05-05T13:54:56.187Z,14.87
2019-05-05T13:57:24.844Z,14.58
2019-05-05T13:59:54.539Z,14.70
2019-05-05T14:02:24.427Z,16.60
2019-05-05T14:04:54.223Z,17.35
2019-05-05T14:07:23.945Z,14.78
2019-05-05T14:09:54.858Z,14.60
2019-05-05T14:12:24.072Z,16.05
2019-05-05T14:14:54.599Z,15.93
2019-05-05T14:17:23.328Z,14.73
2019-05-05T14:20:03.967Z,13.25
2019-05-05T14:22:24.271Z,17.10
2019-05-05T14:24:54.663Z,12.75
2019-05-05T14:27:23.771Z,13.48
2019-05-05T14:29:54.247Z,20.43
2019-05-05T14:35:25.074Z,14.30
2019-05-05T14:37:55.453Z,13.58
2019-05-05T14:40:24.185Z,13.32
2019-05-05T14:42:53.967Z,9.75
2019-05-05T14:45:23.493Z,14.03
2019-05-05T14:47:53.583Z,16.12
2019-05-05T14:50:24.180Z,16.17
2019-05-05T14:52:53.513Z,13.68
2019-05-05T14:55:22.592Z,13.50
2019-05-05T14:57:53.332Z,13.08
2019-05-05T15:00:24.267Z,16.55
2019-05-05T15:02:54.468Z,11.78
2019-05-05T15:05:41.256Z,15.65
2019-05-05T15:08:13.435Z,11.85
2019-05-05T15:10:54.597Z,13.85
2019-05-05T15:13:24.332Z,11.60
2019-05-05T15:15:53.962Z,11.57
2019-05-05T15:18:24.120Z,16.73
2019-05-05T15:20:54.650Z,14.23
2019-05-05T15:23:24.107Z,8.88
2019-05-05T15:25:54.039Z,14.35
2019-05-05T15:28:24.524Z,12.65
2019-05-05T15:30:54.811Z,12.47
2019-05-05T15:33:24.389Z,14.38
2019-05-05T15:35:53.992Z,13.93
2019-05-05T15:38:24.407Z,15.28
2019-05-05T15:40:54.692Z,17.57
2019-05-05T15:43:24.321Z,14.95
2019-05-05T15:45:53.995Z,16.05
2019-05-05T15:48:22.847Z,14.30
2019-05-05T15:50:51.505Z,16.07
2019-05-05T15:53:20.286Z,18.73
2019-05-05T15:55:49.056Z,14.75
2019-05-05T15:58:20.656Z,13.68
2019-05-05T16:00:48.610Z,15.28
2019-05-05T16:03:17.392Z,15.68
2019-05-05T16:05:46.138Z,17.70
2019-05-05T16:08:14.835Z,17.95
2019-05-05T16:10:43.989Z,16.73
2019-05-05T16:13:14.043Z,20.57
2019-05-05T16:15:44.373Z,17.87
2019-05-05T16:18:20.708Z,18.82
2019-05-05T16:21:07.153Z,21.05
2019-05-05T16:23:37.506Z,16.17
2019-05-05T16:26:07.841Z,16.45
2019-05-05T16:28:36.654Z,17.55
2019-05-05T16:31:06.009Z,18.65
2019-05-05T16:33:34.803Z,16.42
2019-05-05T16:36:06.088Z,18.70
2019-05-05T16:38:34.455Z,19.92
2019-05-05T16:41:03.110Z,18.57
2019-05-05T16:43:33.624Z,21.17
2019-05-05T16:46:04.133Z,15.70
2019-05-05T16:48:34.380Z,20.62
2019-05-05T16:51:04.627Z,17.20
2019-05-05T16:53:37.194Z,15.48
2019-05-05T16:56:09.315Z,16.95
2019-05-05T16:58:38.084Z,17.85
2019-05-05T17:01:08.429Z,17.12
2019-05-05T17:03:37.153Z,17.12
2019-05-05T17:06:05.853Z,13.60
2019-05-05T17:08:34.555Z,18.10
2019-05-05T17:11:03.398Z,12.10
2019-05-05T17:13:36.434Z,14.68
2019-05-05T17:16:16.230Z,12.47
2019-05-05T17:19:01.835Z,15.68
2019-05-05T17:24:34.969Z,14.73
2019-05-05T17:27:03.715Z,14.23
2019-05-05T17:29:34.372Z,11.95
2019-05-05T17:32:03.441Z,15.72
2019-05-05T17:34:33.938Z,13.68
2019-05-05T17:37:04.277Z,12.43
2019-05-05T17:39:34.771Z,16.20
2019-05-05T17:42:05.181Z,12.15
2019-05-05T17:44:35.523Z,16.32
2019-05-05T17:47:17.829Z,13.13
2019-05-05T17:50:04.329Z,11.35
2019-05-05T17:52:38.490Z,16.00
2019-05-05T17:55:20.753Z,13.43
2019-05-05T17:57:59.753Z,16.80
2019-05-05T18:00:20.266Z,11.85
2019-05-05T18:02:48.998Z,20.20
2019-05-05T18:05:18.594Z,11.97
2019-05-05T18:07:50.606Z,11.68
2019-05-05T18:10:24.042Z,12.35
2019-05-05T18:13:14.270Z,14.83
2019-05-05T18:15:54.418Z,18.92
2019-05-05T18:18:23.478Z,18.95
2019-05-05T18:20:54.075Z,16.85
2019-05-05T18:23:23.442Z,13.88
2019-05-05T18:25:52.370Z,15.13
2019-05-05T18:28:24.700Z,15.00
2019-05-05T18:30:53.937Z,13.68
2019-05-05T18:33:24.515Z,13.58
2019-05-05T18:35:54.246Z,15.58
2019-05-05T18:38:23.577Z,10.85
2019-05-05T18:40:53.764Z,13.93
2019-05-05T18:43:24.507Z,12.78
2019-05-05T18:46:01.761Z,13.53
2019-05-05T18:48:30.479Z,15.10
2019-05-05T18:50:59.247Z,13.60
2019-05-05T18:53:28.762Z,14.28
2019-05-05T18:55:57.530Z,13.68
2019-05-05T18:58:30.339Z,17.70
2019-05-05T19:01:08.076Z,16.32
2019-05-05T19:03:44.371Z,14.43
2019-05-05T19:06:17.538Z,17.75
2019-05-05T19:08:54.259Z,15.85
2019-05-05T19:11:18.683Z,18.77
2019-05-05T19:13:47.477Z,11.78
2019-05-05T19:16:16.268Z,12.75
2019-05-05T19:18:44.950Z,12.88
2019-05-05T19:21:18.436Z,11.00
2019-05-05T19:23:47.163Z,15.95
2019-05-05T19:26:15.934Z,13.80
2019-05-05T19:28:49.877Z,13.48
2019-05-05T19:31:15.237Z,15.10
2019-05-05T19:33:43.973Z,16.02
2019-05-05T19:36:12.763Z,13.88
2019-05-05T19:38:41.445Z,15.93
2019-05-05T19:41:10.289Z,14.23
2019-05-05T19:43:40.650Z,15.58
2019-05-05T19:46:10.987Z,14.55
2019-05-05T19:48:39.814Z,12.95
2019-05-05T19:51:14.138Z,16.27
2019-05-05T19:53:44.618Z,15.72
2019-05-05T19:56:13.623Z,17.27
2019-05-05T19:58:57.555Z,17.27
2019-05-05T20:01:12.849Z,16.93
2019-05-05T20:03:43.827Z,15.98
2019-05-05T20:06:13.706Z,15.58
2019-05-05T20:08:44.257Z,14.23
2019-05-05T20:11:14.317Z,13.30
2019-05-05T20:13:44.587Z,14.87
2019-05-05T20:16:34.131Z,17.12
2019-05-05T20:19:04.179Z,16.00
2019-05-05T20:21:34.649Z,19.55
2019-05-05T20:24:03.769Z,15.32
2019-05-05T20:26:34.639Z,16.17
2019-05-05T20:29:13.675Z,16.12
2019-05-05T20:31:34.594Z,14.30
2019-05-05T20:34:05.050Z,16.12
2019-05-05T20:36:35.389Z,17.73
2019-05-05T20:39:06.863Z,15.85
2019-05-05T20:41:37.167Z,15.50
2019-05-05T20:44:06.267Z,14.50
2019-05-05T20:46:34.933Z,19.60
2019-05-05T20:49:04.014Z,20.88
2019-05-05T20:51:33.931Z,17.27
2019-05-05T20:54:04.747Z,14.38
2019-05-05T20:56:33.775Z,17.12
2019-05-05T20:59:02.726Z,18.00
2019-05-05T21:01:31.469Z,19.30
2019-05-05T21:04:00.706Z,23.02
2019-05-05T21:06:29.396Z,17.32
2019-05-05T21:08:58.064Z,15.65
2019-05-05T21:11:26.792Z,13.90
2019-05-05T21:13:55.485Z,17.35
2019-05-05T21:16:24.208Z,15.93
2019-05-05T21:18:53.920Z,13.13
2019-05-05T21:21:24.857Z,14.38
2019-05-05T21:23:55.236Z,17.62
2019-05-05T21:26:28.489Z,13.35
2019-05-05T21:28:57.256Z,17.75
2019-05-05T21:31:25.921Z,17.17
2019-05-05T21:33:54.967Z,15.25
2019-05-05T21:36:24.379Z,17.87
2019-05-05T21:38:54.734Z,16.77
2019-05-05T21:41:24.437Z,12.90
2019-05-05T21:43:54.283Z,13.18
2019-05-05T21:46:24.033Z,18.55
2019-05-05T21:48:54.353Z,17.10
2019-05-05T21:51:24.951Z,13.88
2019-05-05T21:53:55.267Z,12.23
2019-05-05T21:56:41.963Z,11.95
2019-05-05T21:59:10.641Z,13.10
2019-05-05T22:01:40.967Z,13.45
2019-05-05T22:04:12.480Z,16.62
2019-05-05T22:06:40.315Z,16.57
2019-05-05T22:09:08.979Z,14.38
2019-05-05T22:11:37.757Z,15.10
2019-05-05T22:14:06.445Z,15.58
2019-05-05T22:16:35.571Z,13.75
2019-05-05T22:19:06.053Z,16.65
2019-05-05T22:21:36.376Z,14.45
2019-05-05T22:24:19.545Z,13.10
2019-05-05T22:26:48.392Z,13.70
2019-05-05T22:29:17.369Z,17.77
2019-05-05T22:31:46.156Z,17.25
2019-05-05T22:34:14.889Z,14.83
2019-05-05T22:36:44.844Z,17.95
2019-05-05T22:39:16.527Z,14.15
2019-05-05T22:41:44.692Z,13.90
2019-05-05T22:44:14.026Z,16.15
2019-05-05T22:46:42.947Z,17.25
2019-05-05T22:49:11.684Z,18.42
2019-05-05T22:51:57.203Z,16.95
2019-05-05T22:54:25.868Z,16.45
2019-05-05T22:56:54.602Z,16.62
2019-05-05T22:59:25.988Z,15.38
2019-05-05T23:01:54.196Z,17.10
2019-05-05T23:04:24.727Z,12.68
2019-05-05T23:06:58.036Z,11.97
2019-05-05T23:09:26.742Z,12.95
2019-05-05T23:11:55.407Z,13.22
2019-05-05T23:14:30.545Z,13.95
2019-05-05T23:17:20.926Z,10.10
2019-05-05T23:19:54.018Z,13.38
2019-05-05T23:22:24.328Z,13.08
2019-05-05T23:27:48.636Z,15.28
2019-05-05T23:30:20.197Z,16.82
2019-05-05T23:32:48.964Z,17.37
2019-05-05T23:35:18.486Z,15.63
2019-05-05T23:37:47.264Z,12.65
2019-05-05T23:40:21.630Z,18.25
2019-05-05T23:42:50.434Z,12.73
2019-05-05T23:45:19.386Z,18.12
2019-05-05T23:47:48.059Z,15.95
2019-05-05T23:50:17.072Z,18.85
2019-05-05T23:52:45.732Z,17.80
2019-05-05T23:55:14.640Z,18.20
2019-05-05T23:57:43.794Z,18.60
